createdAt,value
2022-09-05T00:04:54.569Z,99990.35
2022-09-05T00:10:25.619Z,99989.06
2022-09-05T00:15:59.483Z,99991.47
2022-09-05T00:24:27.646Z,99987.58
2022-09-05T00:27:36.510Z,99993.47
2022-09-05T00:33:22.061Z,99986.77
2022-09-05T00:38:58.889Z,99985.33
2022-09-05T00:44:28.468Z,99978.50
2022-09-05T00:50:00.298Z,99977.02
2022-09-05T00:55:35.921Z,99975.95
2022-09-05T01:01:01.229Z,99967.42
2022-09-05T01:06:41.367Z,99971.62
2022-09-05T01:12:18.928Z,99969.43
2022-09-05T01:18:02.298Z,99968.29
2022-09-05T01:23:53.254Z,99963.46
2022-09-05T01:29:26.930Z,99967.59
2022-09-05T01:35:04.022Z,99970.73
2022-09-05T01:40:30.012Z,99972.41
2022-09-05T01:45:56.799Z,99981.14
2022-09-05T01:51:33.266Z,99985.34
2022-09-05T01:57:09.042Z,99984.05
2022-09-05T02:02:50.478Z,99984.71
2022-09-05T02:08:49.709Z,99988.98
2022-09-05T02:14:34.005Z,99989.44
2022-09-05T02:20:23.961Z,99990.95
2022-09-05T02:26:02.787Z,99989.91
2022-09-05T02:31:36.598Z,99992.16
2022-09-05T02:37:13.602Z,99994.35
2022-09-05T02:45:12.662Z,99994.39
2022-09-05T02:48:46.593Z,99997.85
2022-09-05T02:57:42.882Z,99999.30
2022-09-05T03:00:09.242Z,99995.89
2022-09-05T03:05:58.177Z,99995.85
2022-09-05T03:11:38.090Z,99992.77
2022-09-05T03:17:34.999Z,99995.41
2022-09-05T03:23:38.149Z,99997.10
2022-09-05T03:29:24.433Z,99998.49
2022-09-05T03:35:23.105Z,100000.11
2022-09-05T03:41:07.017Z,99998.48
2022-09-05T03:46:48.842Z,100006.46
2022-09-05T03:57:20.725Z,100012.13
2022-09-05T04:08:18.855Z,100022.56
2022-09-05T04:10:29.307Z,100021.39
2022-09-05T04:16:06.985Z,100028.07
2022-09-05T04:21:35.628Z,100034.61
2022-09-05T04:27:30.134Z,100043.48
2022-09-05T04:33:03.035Z,100052.02
2022-09-05T04:38:40.614Z,100058.64
2022-09-05T04:44:10.901Z,100063.05
2022-09-05T04:49:39.588Z,100065.64
2022-09-05T04:55:12.028Z,100070.16
2022-09-05T05:05:58.367Z,100081.34
2022-09-05T05:06:45.466Z,100088.20
2022-09-05T05:17:59.703Z,100093.52
2022-09-05T05:18:53.141Z,100106.67
2022-09-05T05:24:11.959Z,100112.41
2022-09-05T05:29:48.037Z,100110.41
2022-09-05T05:35:20.396Z,100103.98
2022-09-05T05:40:51.613Z,100106.94
2022-09-05T05:46:27.450Z,100105.42
2022-09-05T05:52:06.578Z,100109.71
2022-09-05T05:58:07.965Z,100115.31
2022-09-05T06:03:58.094Z,100120.67
2022-09-05T06:14:50.623Z,100125.90
2022-09-05T06:16:17.792Z,100129.86
2022-09-05T06:22:36.303Z,100130.45
2022-09-05T06:28:18.455Z,100134.19
2022-09-05T06:34:04.531Z,100139.23
2022-09-05T06:39:46.543Z,100143.58
2022-09-05T06:45:44.172Z,100149.88
2022-09-05T06:52:16.516Z,100147.99
2022-09-05T06:58:15.243Z,100156.52
2022-09-05T07:05:23.084Z,100159.45
2022-09-05T07:10:12.093Z,100163.55
2022-09-05T07:15:56.404Z,100162.33
2022-09-05T07:21:29.214Z,100161.67
2022-09-05T07:26:55.863Z,100163.47
2022-09-05T07:32:24.436Z,100158.46
2022-09-05T07:37:57.887Z,100161.96
2022-09-05T07:43:27.902Z,100162.48
2022-09-05T07:49:01.234Z,100163.61
2022-09-05T07:57:01.850Z,100163.23
2022-09-05T08:00:29.548Z,100167.58
2022-09-05T08:05:58.215Z,100166.98
2022-09-05T08:11:26.527Z,100164.86
2022-09-05T08:16:54.150Z,100161.75
2022-09-05T08:22:24.590Z,100160.02
2022-09-05T08:28:03.358Z,100157.88
2022-09-05T08:33:33.530Z,100158.30
2022-09-05T08:39:01.041Z,100146.86
2022-09-05T08:46:39.658Z,100142.53
2022-09-05T08:50:50.202Z,100136.67
2022-09-05T08:56:22.390Z,100134.75
2022-09-05T09:02:44.920Z,100128.52
2022-09-05T09:07:53.072Z,100123.96
2022-09-05T09:13:40.257Z,100121.43
2022-09-05T09:19:13.085Z,100122.92
2022-09-05T09:24:43.404Z,100118.02
2022-09-05T09:30:13.799Z,100113.66
2022-09-05T09:35:53.307Z,100112.55
2022-09-05T09:41:52.573Z,100111.61
2022-09-05T09:47:30.772Z,100103.90
2022-09-05T09:53:18.813Z,100101.55
2022-09-05T09:59:06.581Z,100095.09
2022-09-05T10:10:37.981Z,100092.80
2022-09-05T10:17:20.524Z,100092.73
2022-09-05T10:23:01.001Z,100094.36
2022-09-05T10:28:40.793Z,100088.42
2022-09-05T10:35:14.236Z,100078.08
2022-09-05T10:40:11.238Z,100079.25
2022-09-05T10:45:52.909Z,100073.26
2022-09-05T10:51:27.942Z,100074.20
2022-09-05T10:57:01.829Z,100071.90
2022-09-05T11:02:38.289Z,100068.83
2022-09-05T11:08:11.297Z,100064.96
2022-09-05T11:13:47.327Z,100063.34
2022-09-05T11:19:20.756Z,100056.49
2022-09-05T11:24:55.820Z,100060.58
2022-09-05T11:30:29.976Z,100056.05
2022-09-05T11:40:06.568Z,100050.33
2022-09-05T11:42:23.131Z,100047.02
2022-09-05T11:48:30.526Z,100035.31
2022-09-05T11:54:20.680Z,100035.20
2022-09-05T12:00:32.541Z,100032.95
2022-09-05T12:06:16.443Z,100030.58
2022-09-05T12:11:56.762Z,100023.05
2022-09-05T12:17:35.817Z,100017.42
2022-09-05T12:23:07.948Z,100015.25
2022-09-05T12:29:29.283Z,100013.33
2022-09-05T12:36:06.884Z,100012.52
2022-09-05T12:41:34.653Z,100012.48
2022-09-05T12:46:29.099Z,100008.59
2022-09-05T12:52:04.720Z,100002.35
2022-09-05T13:02:00.103Z,99993.88
2022-09-05T13:03:28.383Z,99988.30
2022-09-05T13:09:03.129Z,99989.23
2022-09-05T13:14:57.074Z,99987.52
2022-09-05T13:20:34.437Z,99975.91
2022-09-05T13:26:05.058Z,99974.20
2022-09-05T13:37:59.138Z,99969.98
2022-09-05T13:43:48.652Z,99973.34
2022-09-05T13:49:26.600Z,99969.59
2022-09-05T13:55:04.353Z,99966.10
2022-09-05T14:01:15.745Z,99961.57
2022-09-05T14:13:02.449Z,99961.16
2022-09-05T14:18:34.025Z,99958.00
2022-09-05T14:24:04.682Z,99956.20
2022-09-05T14:29:36.740Z,99951.77
2022-09-05T14:37:43.109Z,99949.20
2022-09-05T14:40:54.052Z,99943.37
2022-09-05T14:46:28.269Z,99937.75
2022-09-05T14:51:47.969Z,99935.15
2022-09-05T15:02:09.654Z,99930.02
2022-09-05T15:02:58.087Z,99928.11
2022-09-05T15:08:14.859Z,99923.54
2022-09-05T15:13:35.026Z,99924.23
2022-09-05T15:18:46.581Z,99920.60
2022-09-05T15:24:02.918Z,99915.50
2022-09-05T15:29:18.883Z,99917.52
2022-09-05T15:34:33.215Z,99919.50
2022-09-05T15:39:41.239Z,99916.38
2022-09-05T15:45:11.131Z,99913.58
2022-09-05T15:50:26.586Z,99911.02
2022-09-05T15:55:50.494Z,99915.58
2022-09-05T16:01:45.064Z,99909.95
2022-09-05T16:10:50.848Z,99904.85
2022-09-05T16:12:38.227Z,99895.69
2022-09-05T16:23:15.258Z,99890.73
2022-09-05T16:23:40.671Z,99886.51
2022-09-05T16:28:52.199Z,99889.96
2022-09-05T16:34:00.999Z,99890.70
2022-09-05T16:39:22.214Z,99891.35
2022-09-05T16:44:36.979Z,99891.70
2022-09-05T16:49:55.350Z,99897.24
2022-09-05T16:55:13.134Z,99897.92
2022-09-05T17:00:20.604Z,99897.48
2022-09-05T17:05:36.465Z,99890.30
2022-09-05T17:10:57.407Z,99886.05
2022-09-05T17:16:06.802Z,99891.19
2022-09-05T17:21:36.511Z,99891.84
2022-09-05T17:29:34.492Z,99895.27
2022-09-05T17:32:28.505Z,99900.67
2022-09-05T17:38:11.675Z,99902.20
2022-09-05T17:43:29.174Z,99905.09
2022-09-05T17:49:19.655Z,99912.02
2022-09-05T17:54:33.723Z,99916.13
2022-09-05T17:59:41.970Z,99922.93
2022-09-05T18:04:50.769Z,99924.95
2022-09-05T18:10:14.936Z,99931.76
2022-09-05T18:15:59.756Z,99935.57
2022-09-05T18:21:26.237Z,99938.91
2022-09-05T18:26:41.801Z,99938.98
2022-09-05T18:32:02.862Z,99941.38
2022-09-05T18:37:49.450Z,99942.79
2022-09-05T18:42:57.395Z,99950.59
2022-09-05T18:53:35.930Z,99955.77
2022-09-05T18:58:53.560Z,99958.83
2022-09-05T19:04:05.628Z,99953.89
2022-09-05T19:09:15.874Z,99956.09
2022-09-05T19:14:34.092Z,99954.39
2022-09-05T19:20:32.028Z,99952.91
2022-09-05T19:25:43.875Z,99955.30
2022-09-05T19:37:04.606Z,99946.16
2022-09-05T19:37:05.309Z,99951.00
2022-09-05T19:47:36.182Z,99941.88
2022-09-05T19:47:55.889Z,99938.29
2022-09-05T19:53:08.470Z,99935.71
2022-09-05T19:58:20.964Z,99933.36
2022-09-05T20:03:28.392Z,99932.70
2022-09-05T20:08:42.459Z,99933.70
2022-09-05T20:13:49.394Z,99934.86
2022-09-05T20:18:56.451Z,99927.73
2022-09-05T20:24:03.886Z,99929.12
2022-09-05T20:29:13.952Z,99933.89
2022-09-05T20:36:26.573Z,99929.77
2022-09-05T20:43:35.265Z,99922.24
2022-09-05T20:45:44.901Z,99922.80
2022-09-05T20:54:24.996Z,99925.41
2022-09-05T20:56:31.255Z,99924.86
2022-09-05T21:01:43.061Z,99930.13
2022-09-05T21:06:52.652Z,99938.73
2022-09-05T21:12:06.509Z,99939.66
2022-09-05T21:17:23.885Z,99940.94
2022-09-05T21:22:43.123Z,99938.21
2022-09-05T21:28:05.802Z,99939.49
2022-09-05T21:33:18.461Z,99940.48
2022-09-05T21:38:45.079Z,99940.91
2022-09-05T21:47:40.635Z,99944.65
2022-09-05T21:49:19.262Z,99947.36
2022-09-05T21:59:20.898Z,99938.42
2022-09-05T21:59:58.020Z,99936.59
2022-09-05T22:05:14.744Z,99934.85
2022-09-05T22:10:22.715Z,99932.31
2022-09-05T22:15:43.312Z,99925.50
2022-09-05T22:21:32.017Z,99925.54
2022-09-05T22:26:21.769Z,99929.73
2022-09-05T22:31:32.697Z,99928.92
2022-09-05T22:36:39.897Z,99924.73
2022-09-05T22:41:48.147Z,99925.55
2022-09-05T22:46:56.233Z,99923.95
2022-09-05T22:52:03.539Z,99930.25
2022-09-05T22:57:10.775Z,99927.65
2022-09-05T23:02:17.929Z,99930.71
2022-09-05T23:07:25.071Z,99925.17
2022-09-05T23:12:35.878Z,99909.48
2022-09-05T23:17:45.316Z,99900.46
2022-09-05T23:22:52.249Z,99897.73
2022-09-05T23:27:59.617Z,99893.13
2022-09-05T23:33:08.695Z,99885.55
2022-09-05T23:38:15.749Z,99874.47
2022-09-05T23:43:25.670Z,99879.01
2022-09-05T23:48:32.979Z,99884.61
2022-09-05T23:53:40.426Z,99884.30
2022-09-05T23:58:47.811Z,99890.06
